Flight Track Log - Related Links

Times and Time Zones

All times are in EDT time to prevent confusion due to time zone crossing. See the QXE2326 flight status page for this flight to view local times or setup timezone preferences in your user account.


Time Position Orientation Groundspeed Altitude Reporting Facility
EDT Latitude Longitude Course Direction KTS MPH feet Rate Location/Type
Wed 06:07:06 PM 46.8011 -112.0850 326° Northwest 214 246 11,300  Level Salt Lake Center
Wed 06:08:08 PM 46.8550 -112.1286 331° Northwest 217 250 13,000 1,659 Climbing Salt Lake Center
Wed 06:09:09 PM 46.8978 -112.1958 313° West 237 273 14,700 1,632 Climbing Salt Lake Center
Wed 06:10:24 PM 46.9125 -112.3050 281° West 233 268 16,700 1,489 Climbing Salt Lake Center
Wed 06:11:26 PM 46.9292 -112.3958 285° West 232 267 18,100 1,268 Climbing Salt Lake Center
Wed 06:12:27 PM 46.9439 -112.4861 283° West 230 265 19,300 1,103 Climbing Salt Lake Center
Wed 06:13:42 PM 46.9806 -112.6219 292° West 254 292 20,600 971 Climbing Salt Lake Center
Wed 06:14:43 PM 47.0056 -112.7231 290° West 262 302 21,500 732 Climbing Salt Lake Center
Wed 06:15:45 PM 47.0233 -112.8342 283° West 275 316 22,100 726 Climbing Salt Lake Center
Wed 06:16:47 PM 47.0436 -112.9528 284° West 291 335 23,000 871 Climbing Salt Lake Center
Wed 06:17:49 PM 47.0631 -113.0664 284° West 288 331 23,900 484 Climbing Salt Lake Center
Wed 06:18:51 PM 47.0811 -113.1831 283° West 294 338 24,000 48 Climbing Salt Lake Center
Wed 06:19:53 PM 47.1011 -113.3067 283° West 310 357 24,000  Level Salt Lake Center
Wed 06:20:55 PM 47.1264 -113.4611 284° West 323 372 24,000  Level Salt Lake Center
Wed 06:21:56 PM 47.1481 -113.5942 284° West 334 384 24,000  Level Salt Lake Center
Wed 06:22:58 PM 47.1697 -113.7258 284° West 334 384 24,000  Level Salt Lake Center
Wed 06:24:00 PM 47.1900 -113.8594 283° West 335 386 24,000  Level Salt Lake Center
Wed 06:25:02 PM 47.2108 -113.9906 283° West 331 381 24,000  Level Salt Lake Center
Wed 06:26:04 PM 47.2308 -114.1219 283° West 329 379 24,000  Level Salt Lake Center
Wed 06:27:06 PM 47.2522 -114.2522 284° West 329 379 24,000  Level Salt Lake Center
Wed 06:28:08 PM 47.2758 -114.4122 282° West 333 383 24,000 -48 Level Salt Lake Center
Wed 06:29:10 PM 47.2953 -114.5453 282° West 332 382 23,900  Descending Salt Lake Center
Wed 06:30:11 PM 47.2933 -114.6833 269° West 335 386 24,000 49 Climbing Salt Lake Center
Wed 06:31:13 PM 47.2964 -114.8225 272° West 340 391 24,000  Level Salt Lake Center
Wed 06:32:15 PM 47.3003 -114.9586 272° West 334 384 24,000  Level Salt Lake Center
Wed 06:33:17 PM 47.3028 -115.0978 272° West 338 389 24,000  Level Salt Lake Center
Wed 06:34:19 PM 47.3072 -115.2372 273° West 340 391 24,000  Level Salt Lake Center
Wed 06:35:20 PM 47.3136 -115.4072 273° West 343 395 24,000  Level Salt Lake Center
Wed 06:36:28 PM 47.3211 -115.5447 275° West 339 390 24,000  Level Seattle Center
Wed 06:37:29 PM 47.3306 -115.6797 276° West 334 384 24,000  Level Seattle Center
Wed 06:38:30 PM 47.3383 -115.8156 275° West 335 386 24,000  Level Seattle Center
Wed 06:39:31 PM 47.3475 -115.9533 276° West 336 387 24,000  Level Seattle Center
Wed 06:40:32 PM 47.3683 -116.1144 281° West 336 387 24,000  Level Seattle Center
Wed 06:41:33 PM 47.3850 -116.2486 280° West 335 386 24,000  Level Seattle Center
Wed 06:42:34 PM 47.4011 -116.3842 280° West 335 386 24,000  Level Seattle Center
Wed 06:43:35 PM 47.4161 -116.5194 279° West 336 387 24,000  Level Seattle Center
Wed 06:44:36 PM 47.4319 -116.6550 280° West 335 386 24,000  Level Seattle Center
Wed 06:45:37 PM 47.4475 -116.7919 280° West 337 388 24,000  Level Seattle Center
Wed 06:46:39 PM 47.4628 -116.9297 279° West 338 389 24,000  Level Seattle Center
Wed 06:47:39 PM 47.4781 -117.0706 279° West 340 391 24,000  Level Seattle Center

Login

Don't have an account? Register now (free) for customized features, flight alerts, and more!